sensor_id;sensor_type;location;lat;lon;timestamp;P1;durP1;ratioP1;P2;durP2;ratioP2
69594;SDS011;56800;52.142;5.364;2022-10-16T00:01:18;4.93;;;1.73;;
69594;SDS011;56800;52.142;5.364;2022-10-16T00:03:47;8.20;;;2.27;;
69594;SDS011;56800;52.142;5.364;2022-10-16T00:06:15;7.10;;;1.80;;
69594;SDS011;56800;52.142;5.364;2022-10-16T00:08:43;9.00;;;1.90;;
69594;SDS011;56800;52.142;5.364;2022-10-16T00:11:12;11.98;;;2.25;;
69594;SDS011;56800;52.142;5.364;2022-10-16T00:13:44;6.05;;;2.10;;
69594;SDS011;56800;52.142;5.364;2022-10-16T00:16:12;6.80;;;2.17;;
69594;SDS011;56800;52.142;5.364;2022-10-16T00:18:39;7.63;;;2.33;;
69594;SDS011;56800;52.142;5.364;2022-10-16T00:21:10;6.63;;;1.95;;
69594;SDS011;56800;52.142;5.364;2022-10-16T00:23:40;7.20;;;2.30;;
69594;SDS011;56800;52.142;5.364;2022-10-16T00:26:08;8.70;;;2.10;;
69594;SDS011;56800;52.142;5.364;2022-10-16T00:28:37;11.33;;;2.13;;
69594;SDS011;56800;52.142;5.364;2022-10-16T00:31:08;7.70;;;1.73;;
69594;SDS011;56800;52.142;5.364;2022-10-16T00:33:37;7.75;;;2.28;;
69594;SDS011;56800;52.142;5.364;2022-10-16T00:36:05;5.95;;;2.05;;
69594;SDS011;56800;52.142;5.364;2022-10-16T00:38:33;7.75;;;2.20;;
69594;SDS011;56800;52.142;5.364;2022-10-16T00:41:00;6.20;;;2.00;;
69594;SDS011;56800;52.142;5.364;2022-10-16T00:43:35;7.53;;;2.17;;
69594;SDS011;56800;52.142;5.364;2022-10-16T00:46:20;7.05;;;2.53;;
69594;SDS011;56800;52.142;5.364;2022-10-16T00:48:58;11.88;;;2.08;;
69594;SDS011;56800;52.142;5.364;2022-10-16T00:51:33;5.05;;;1.85;;
69594;SDS011;56800;52.142;5.364;2022-10-16T00:54:05;6.13;;;2.37;;
69594;SDS011;56800;52.142;5.364;2022-10-16T00:56:34;6.97;;;2.30;;
69594;SDS011;56800;52.142;5.364;2022-10-16T00:59:03;6.60;;;2.30;;
69594;SDS011;56800;52.142;5.364;2022-10-16T01:01:34;7.57;;;2.28;;
69594;SDS011;56800;52.142;5.364;2022-10-16T01:04:01;9.82;;;2.28;;
69594;SDS011;56800;52.142;5.364;2022-10-16T01:06:39;7.50;;;2.20;;
69594;SDS011;56800;52.142;5.364;2022-10-16T01:09:23;7.28;;;2.20;;
69594;SDS011;56800;52.142;5.364;2022-10-16T01:17:53;8.60;;;2.17;;
69594;SDS011;56800;52.142;5.364;2022-10-16T01:20:29;6.67;;;2.30;;
69594;SDS011;56800;52.142;5.364;2022-10-16T01:23:09;6.72;;;2.47;;
69594;SDS011;56800;52.142;5.364;2022-10-16T01:29:07;8.00;;;2.03;;
69594;SDS011;56800;52.142;5.364;2022-10-16T01:31:41;6.75;;;2.25;;
69594;SDS011;56800;52.142;5.364;2022-10-16T01:34:14;9.73;;;2.40;;
69594;SDS011;56800;52.142;5.364;2022-10-16T01:36:49;7.03;;;2.30;;
69594;SDS011;56800;52.142;5.364;2022-10-16T01:39:20;5.10;;;2.22;;
69594;SDS011;56800;52.142;5.364;2022-10-16T01:41:52;7.85;;;2.63;;
69594;SDS011;56800;52.142;5.364;2022-10-16T01:44:25;5.32;;;2.50;;
69594;SDS011;56800;52.142;5.364;2022-10-16T01:46:55;5.80;;;2.23;;
69594;SDS011;56800;52.142;5.364;2022-10-16T01:49:23;8.25;;;2.60;;
69594;SDS011;56800;52.142;5.364;2022-10-16T01:51:54;6.13;;;2.67;;
69594;SDS011;56800;52.142;5.364;2022-10-16T01:54:25;7.28;;;2.15;;
69594;SDS011;56800;52.142;5.364;2022-10-16T01:56:53;8.20;;;2.88;;
69594;SDS011;56800;52.142;5.364;2022-10-16T01:59:21;5.87;;;2.50;;
69594;SDS011;56800;52.142;5.364;2022-10-16T02:01:55;7.03;;;2.40;;
69594;SDS011;56800;52.142;5.364;2022-10-16T02:04:30;5.60;;;2.15;;
69594;SDS011;56800;52.142;5.364;2022-10-16T02:07:04;5.00;;;2.40;;
69594;SDS011;56800;52.142;5.364;2022-10-16T02:09:33;7.03;;;2.60;;
69594;SDS011;56800;52.142;5.364;2022-10-16T02:12:01;7.53;;;2.30;;
69594;SDS011;56800;52.142;5.364;2022-10-16T02:14:34;7.55;;;2.40;;
69594;SDS011;56800;52.142;5.364;2022-10-16T02:17:11;7.28;;;2.85;;
69594;SDS011;56800;52.142;5.364;2022-10-16T02:19:40;7.03;;;2.60;;
69594;SDS011;56800;52.142;5.364;2022-10-16T02:22:08;8.35;;;2.30;;
69594;SDS011;56800;52.142;5.364;2022-10-16T02:27:24;10.27;;;2.60;;
69594;SDS011;56800;52.142;5.364;2022-10-16T02:29:53;8.50;;;2.50;;
69594;SDS011;56800;52.142;5.364;2022-10-16T02:32:34;8.45;;;2.38;;
69594;SDS011;56800;52.142;5.364;2022-10-16T02:35:03;5.93;;;2.60;;
69594;SDS011;56800;52.142;5.364;2022-10-16T02:37:30;5.00;;;2.80;;
69594;SDS011;56800;52.142;5.364;2022-10-16T02:39:59;4.00;;;2.38;;
69594;SDS011;56800;52.142;5.364;2022-10-16T02:42:32;7.32;;;2.40;;
69594;SDS011;56800;52.142;5.364;2022-10-16T02:45:01;6.60;;;2.50;;
69594;SDS011;56800;52.142;5.364;2022-10-16T02:47:28;6.63;;;2.80;;
69594;SDS011;56800;52.142;5.364;2022-10-16T02:49:55;8.27;;;2.60;;
69594;SDS011;56800;52.142;5.364;2022-10-16T02:52:21;7.15;;;2.33;;
69594;SDS011;56800;52.142;5.364;2022-10-16T02:54:49;8.20;;;2.65;;
69594;SDS011;56800;52.142;5.364;2022-10-16T02:57:15;6.55;;;2.30;;
69594;SDS011;56800;52.142;5.364;2022-10-16T02:59:42;9.70;;;2.03;;
69594;SDS011;56800;52.142;5.364;2022-10-16T03:02:09;4.67;;;2.17;;
69594;SDS011;56800;52.142;5.364;2022-10-16T03:04:36;7.80;;;2.38;;
69594;SDS011;56800;52.142;5.364;2022-10-16T03:07:03;3.63;;;2.30;;
69594;SDS011;56800;52.142;5.364;2022-10-16T03:09:29;4.70;;;2.35;;
69594;SDS011;56800;52.142;5.364;2022-10-16T03:11:56;3.97;;;2.28;;
69594;SDS011;56800;52.142;5.364;2022-10-16T03:14:23;6.77;;;2.20;;
69594;SDS011;56800;52.142;5.364;2022-10-16T03:16:49;4.43;;;2.30;;
69594;SDS011;56800;52.142;5.364;2022-10-16T03:19:16;8.10;;;2.33;;
69594;SDS011;56800;52.142;5.364;2022-10-16T03:21:43;8.13;;;2.42;;
69594;SDS011;56800;52.142;5.364;2022-10-16T03:24:10;5.05;;;2.08;;
69594;SDS011;56800;52.142;5.364;2022-10-16T03:26:37;3.97;;;2.37;;
69594;SDS011;56800;52.142;5.364;2022-10-16T03:29:03;5.15;;;2.10;;
69594;SDS011;56800;52.142;5.364;2022-10-16T03:31:31;4.45;;;2.42;;
69594;SDS011;56800;52.142;5.364;2022-10-16T03:33:58;5.03;;;2.45;;
69594;SDS011;56800;52.142;5.364;2022-10-16T03:36:24;4.45;;;2.00;;
69594;SDS011;56800;52.142;5.364;2022-10-16T03:38:51;5.30;;;2.50;;
69594;SDS011;56800;52.142;5.364;2022-10-16T03:41:18;6.60;;;2.50;;
69594;SDS011;56800;52.142;5.364;2022-10-16T03:43:44;6.50;;;2.00;;
69594;SDS011;56800;52.142;5.364;2022-10-16T03:46:11;5.93;;;2.10;;
69594;SDS011;56800;52.142;5.364;2022-10-16T03:48:37;4.25;;;1.92;;
69594;SDS011;56800;52.142;5.364;2022-10-16T03:51:05;6.70;;;2.27;;
69594;SDS011;56800;52.142;5.364;2022-10-16T03:53:32;5.70;;;2.08;;
69594;SDS011;56800;52.142;5.364;2022-10-16T03:55:59;5.95;;;2.08;;
69594;SDS011;56800;52.142;5.364;2022-10-16T03:58:26;5.75;;;2.10;;
69594;SDS011;56800;52.142;5.364;2022-10-16T04:00:52;4.57;;;2.08;;
69594;SDS011;56800;52.142;5.364;2022-10-16T04:03:19;4.50;;;2.40;;
69594;SDS011;56800;52.142;5.364;2022-10-16T04:05:47;3.30;;;1.83;;
69594;SDS011;56800;52.142;5.364;2022-10-16T04:08:14;4.60;;;1.75;;
69594;SDS011;56800;52.142;5.364;2022-10-16T04:10:42;6.28;;;1.90;;
69594;SDS011;56800;52.142;5.364;2022-10-16T04:13:09;5.70;;;2.03;;
69594;SDS011;56800;52.142;5.364;2022-10-16T04:15:36;4.63;;;1.80;;
69594;SDS011;56800;52.142;5.364;2022-10-16T04:18:03;9.57;;;1.98;;
69594;SDS011;56800;52.142;5.364;2022-10-16T04:20:30;5.85;;;1.92;;
69594;SDS011;56800;52.142;5.364;2022-10-16T04:22:57;4.63;;;2.20;;
69594;SDS011;56800;52.142;5.364;2022-10-16T04:25:24;4.72;;;2.10;;
69594;SDS011;56800;52.142;5.364;2022-10-16T04:27:52;5.03;;;2.00;;
69594;SDS011;56800;52.142;5.364;2022-10-16T04:30:20;7.72;;;1.85;;
69594;SDS011;56800;52.142;5.364;2022-10-16T04:32:50;5.15;;;1.75;;
69594;SDS011;56800;52.142;5.364;2022-10-16T04:35:18;4.90;;;2.13;;
69594;SDS011;56800;52.142;5.364;2022-10-16T04:37:45;4.88;;;1.98;;
69594;SDS011;56800;52.142;5.364;2022-10-16T04:40:12;4.23;;;2.03;;
69594;SDS011;56800;52.142;5.364;2022-10-16T04:42:39;6.13;;;2.17;;
69594;SDS011;56800;52.142;5.364;2022-10-16T04:45:06;5.60;;;2.10;;
69594;SDS011;56800;52.142;5.364;2022-10-16T04:47:39;6.82;;;2.00;;
69594;SDS011;56800;52.142;5.364;2022-10-16T04:50:06;5.65;;;2.00;;
69594;SDS011;56800;52.142;5.364;2022-10-16T04:52:33;4.07;;;1.83;;
69594;SDS011;56800;52.142;5.364;2022-10-16T04:55:05;5.30;;;1.95;;
69594;SDS011;56800;52.142;5.364;2022-10-16T04:57:32;4.47;;;1.92;;
69594;SDS011;56800;52.142;5.364;2022-10-16T04:59:59;3.38;;;1.67;;
69594;SDS011;56800;52.142;5.364;2022-10-16T05:02:26;4.03;;;1.58;;
69594;SDS011;56800;52.142;5.364;2022-10-16T05:04:53;7.23;;;1.90;;
69594;SDS011;56800;52.142;5.364;2022-10-16T05:07:19;4.43;;;2.00;;
69594;SDS011;56800;52.142;5.364;2022-10-16T05:09:46;5.10;;;2.00;;
69594;SDS011;56800;52.142;5.364;2022-10-16T05:12:12;8.77;;;1.70;;
69594;SDS011;56800;52.142;5.364;2022-10-16T05:14:39;4.10;;;1.80;;
69594;SDS011;56800;52.142;5.364;2022-10-16T05:17:06;3.53;;;2.00;;
69594;SDS011;56800;52.142;5.364;2022-10-16T05:19:32;4.88;;;2.10;;
69594;SDS011;56800;52.142;5.364;2022-10-16T05:21:59;5.20;;;1.85;;
69594;SDS011;56800;52.142;5.364;2022-10-16T05:24:25;4.00;;;2.00;;
69594;SDS011;56800;52.142;5.364;2022-10-16T05:26:52;7.60;;;1.92;;
69594;SDS011;56800;52.142;5.364;2022-10-16T05:29:19;5.30;;;2.03;;
69594;SDS011;56800;52.142;5.364;2022-10-16T05:31:46;4.55;;;1.77;;
69594;SDS011;56800;52.142;5.364;2022-10-16T05:34:12;4.20;;;2.00;;
69594;SDS011;56800;52.142;5.364;2022-10-16T05:36:39;3.80;;;2.30;;
69594;SDS011;56800;52.142;5.364;2022-10-16T05:39:06;5.97;;;1.95;;
69594;SDS011;56800;52.142;5.364;2022-10-16T05:41:32;7.10;;;2.10;;
69594;SDS011;56800;52.142;5.364;2022-10-16T05:43:59;5.68;;;1.90;;
69594;SDS011;56800;52.142;5.364;2022-10-16T05:46:26;5.95;;;2.08;;
69594;SDS011;56800;52.142;5.364;2022-10-16T05:48:52;6.75;;;2.08;;
69594;SDS011;56800;52.142;5.364;2022-10-16T05:51:19;7.88;;;2.33;;
69594;SDS011;56800;52.142;5.364;2022-10-16T05:53:46;6.57;;;2.03;;
69594;SDS011;56800;52.142;5.364;2022-10-16T05:56:12;4.45;;;2.22;;
69594;SDS011;56800;52.142;5.364;2022-10-16T05:58:39;5.88;;;2.00;;
69594;SDS011;56800;52.142;5.364;2022-10-16T06:01:16;6.38;;;2.20;;
69594;SDS011;56800;52.142;5.364;2022-10-16T06:03:44;5.45;;;2.35;;
69594;SDS011;56800;52.142;5.364;2022-10-16T06:06:18;4.63;;;1.87;;
69594;SDS011;56800;52.142;5.364;2022-10-16T06:08:47;5.50;;;2.22;;
69594;SDS011;56800;52.142;5.364;2022-10-16T06:11:18;5.65;;;2.45;;
69594;SDS011;56800;52.142;5.364;2022-10-16T06:13:53;4.68;;;2.10;;
69594;SDS011;56800;52.142;5.364;2022-10-16T06:16:24;7.90;;;2.42;;
69594;SDS011;56800;52.142;5.364;2022-10-16T06:18:52;7.53;;;2.33;;
69594;SDS011;56800;52.142;5.364;2022-10-16T06:21:22;5.90;;;2.20;;
69594;SDS011;56800;52.142;5.364;2022-10-16T06:23:53;3.58;;;1.95;;
69594;SDS011;56800;52.142;5.364;2022-10-16T06:26:22;4.53;;;2.38;;
69594;SDS011;56800;52.142;5.364;2022-10-16T06:28:50;9.57;;;2.35;;
69594;SDS011;56800;52.142;5.364;2022-10-16T06:31:17;9.37;;;2.23;;
69594;SDS011;56800;52.142;5.364;2022-10-16T06:33:44;7.70;;;2.40;;
69594;SDS011;56800;52.142;5.364;2022-10-16T06:36:14;4.53;;;1.95;;
69594;SDS011;56800;52.142;5.364;2022-10-16T06:38:41;4.43;;;2.60;;
69594;SDS011;56800;52.142;5.364;2022-10-16T06:41:13;6.25;;;2.50;;
69594;SDS011;56800;52.142;5.364;2022-10-16T06:43:44;6.33;;;2.10;;
69594;SDS011;56800;52.142;5.364;2022-10-16T06:46:11;5.90;;;2.33;;
69594;SDS011;56800;52.142;5.364;2022-10-16T06:48:40;9.20;;;2.80;;
69594;SDS011;56800;52.142;5.364;2022-10-16T06:51:09;8.77;;;2.28;;
69594;SDS011;56800;52.142;5.364;2022-10-16T06:53:41;6.20;;;2.38;;
69594;SDS011;56800;52.142;5.364;2022-10-16T06:56:28;4.40;;;2.50;;
69594;SDS011;56800;52.142;5.364;2022-10-16T06:58:56;6.32;;;2.40;;
69594;SDS011;56800;52.142;5.364;2022-10-16T07:01:23;8.43;;;2.78;;
69594;SDS011;56800;52.142;5.364;2022-10-16T07:03:51;7.38;;;2.42;;
69594;SDS011;56800;52.142;5.364;2022-10-16T07:06:19;4.47;;;2.03;;
69594;SDS011;56800;52.142;5.364;2022-10-16T07:08:48;7.83;;;2.40;;
69594;SDS011;56800;52.142;5.364;2022-10-16T07:11:16;7.70;;;2.42;;
69594;SDS011;56800;52.142;5.364;2022-10-16T07:13:44;5.55;;;2.35;;
69594;SDS011;56800;52.142;5.364;2022-10-16T07:16:20;5.03;;;2.38;;
69594;SDS011;56800;52.142;5.364;2022-10-16T07:18:48;9.70;;;2.20;;
69594;SDS011;56800;52.142;5.364;2022-10-16T07:23:43;5.45;;;1.90;;
69594;SDS011;56800;52.142;5.364;2022-10-16T07:26:10;5.85;;;1.75;;
69594;SDS011;56800;52.142;5.364;2022-10-16T07:28:38;10.05;;;2.33;;
69594;SDS011;56800;52.142;5.364;2022-10-16T07:31:06;4.60;;;2.00;;
69594;SDS011;56800;52.142;5.364;2022-10-16T07:33:37;6.40;;;2.10;;
69594;SDS011;56800;52.142;5.364;2022-10-16T07:36:05;7.28;;;2.13;;
69594;SDS011;56800;52.142;5.364;2022-10-16T07:38:32;7.80;;;2.20;;
69594;SDS011;56800;52.142;5.364;2022-10-16T07:41:08;7.68;;;2.17;;
69594;SDS011;56800;52.142;5.364;2022-10-16T07:43:37;6.18;;;2.03;;
69594;SDS011;56800;52.142;5.364;2022-10-16T07:46:04;5.77;;;1.83;;
69594;SDS011;56800;52.142;5.364;2022-10-16T07:48:32;6.25;;;1.67;;
69594;SDS011;56800;52.142;5.364;2022-10-16T07:51:01;8.95;;;1.75;;
69594;SDS011;56800;52.142;5.364;2022-10-16T07:53:29;5.50;;;2.03;;
69594;SDS011;56800;52.142;5.364;2022-10-16T07:56:00;6.13;;;2.05;;
69594;SDS011;56800;52.142;5.364;2022-10-16T07:58:28;10.63;;;2.27;;
69594;SDS011;56800;52.142;5.364;2022-10-16T08:00:55;5.97;;;2.40;;
69594;SDS011;56800;52.142;5.364;2022-10-16T08:03:23;9.85;;;2.42;;
69594;SDS011;56800;52.142;5.364;2022-10-16T08:05:51;7.70;;;2.38;;
69594;SDS011;56800;52.142;5.364;2022-10-16T08:08:18;5.80;;;2.10;;
69594;SDS011;56800;52.142;5.364;2022-10-16T08:10:44;13.37;;;2.53;;
69594;SDS011;56800;52.142;5.364;2022-10-16T08:13:11;6.30;;;2.50;;
69594;SDS011;56800;52.142;5.364;2022-10-16T08:15:41;6.80;;;2.35;;
69594;SDS011;56800;52.142;5.364;2022-10-16T08:18:09;6.68;;;2.10;;
69594;SDS011;56800;52.142;5.364;2022-10-16T08:20:36;8.18;;;2.20;;
69594;SDS011;56800;52.142;5.364;2022-10-16T08:23:03;7.80;;;2.27;;
69594;SDS011;56800;52.142;5.364;2022-10-16T08:25:30;6.57;;;2.00;;
69594;SDS011;56800;52.142;5.364;2022-10-16T08:27:57;5.45;;;2.05;;
69594;SDS011;56800;52.142;5.364;2022-10-16T08:30:23;9.27;;;2.30;;
69594;SDS011;56800;52.142;5.364;2022-10-16T08:32:50;5.70;;;2.15;;
69594;SDS011;56800;52.142;5.364;2022-10-16T08:35:17;6.80;;;2.17;;
69594;SDS011;56800;52.142;5.364;2022-10-16T08:37:43;6.35;;;2.05;;
69594;SDS011;56800;52.142;5.364;2022-10-16T08:40:20;7.22;;;2.08;;
69594;SDS011;56800;52.142;5.364;2022-10-16T08:45:38;9.73;;;2.10;;
69594;SDS011;56800;52.142;5.364;2022-10-16T08:48:17;9.37;;;2.07;;
69594;SDS011;56800;52.142;5.364;2022-10-16T08:50:50;9.25;;;2.05;;
69594;SDS011;56800;52.142;5.364;2022-10-16T08:53:20;6.03;;;2.28;;
69594;SDS011;56800;52.142;5.364;2022-10-16T08:55:53;7.10;;;1.98;;
69594;SDS011;56800;52.142;5.364;2022-10-16T08:58:26;8.68;;;1.75;;
69594;SDS011;56800;52.142;5.364;2022-10-16T09:00:55;9.93;;;2.20;;
69594;SDS011;56800;52.142;5.364;2022-10-16T09:06:01;5.55;;;1.95;;
69594;SDS011;56800;52.142;5.364;2022-10-16T09:11:59;9.00;;;2.10;;
69594;SDS011;56800;52.142;5.364;2022-10-16T09:23:35;6.53;;;2.10;;
69594;SDS011;56800;52.142;5.364;2022-10-16T09:26:03;10.43;;;2.10;;
69594;SDS011;56800;52.142;5.364;2022-10-16T09:28:31;9.47;;;2.40;;
69594;SDS011;56800;52.142;5.364;2022-10-16T09:30:58;8.02;;;2.63;;
69594;SDS011;56800;52.142;5.364;2022-10-16T09:33:25;10.63;;;2.25;;
69594;SDS011;56800;52.142;5.364;2022-10-16T09:36:02;8.43;;;2.17;;
69594;SDS011;56800;52.142;5.364;2022-10-16T09:38:32;12.20;;;2.50;;
69594;SDS011;56800;52.142;5.364;2022-10-16T09:41:02;14.60;;;3.40;;
69594;SDS011;56800;52.142;5.364;2022-10-16T09:43:51;11.52;;;2.60;;
69594;SDS011;56800;52.142;5.364;2022-10-16T09:46:25;8.68;;;2.60;;
69594;SDS011;56800;52.142;5.364;2022-10-16T09:49:00;11.48;;;3.22;;
69594;SDS011;56800;52.142;5.364;2022-10-16T09:51:32;12.10;;;2.60;;
69594;SDS011;56800;52.142;5.364;2022-10-16T09:56:37;10.48;;;2.92;;
69594;SDS011;56800;52.142;5.364;2022-10-16T09:59:16;11.57;;;2.97;;
69594;SDS011;56800;52.142;5.364;2022-10-16T10:01:54;13.23;;;2.95;;
69594;SDS011;56800;52.142;5.364;2022-10-16T10:04:22;13.73;;;3.38;;
69594;SDS011;56800;52.142;5.364;2022-10-16T10:06:53;10.40;;;2.70;;
69594;SDS011;56800;52.142;5.364;2022-10-16T10:12:20;14.48;;;2.63;;
69594;SDS011;56800;52.142;5.364;2022-10-16T10:14:52;15.45;;;2.65;;
69594;SDS011;56800;52.142;5.364;2022-10-16T10:17:22;15.15;;;2.50;;
69594;SDS011;56800;52.142;5.364;2022-10-16T10:22:39;8.90;;;2.25;;
69594;SDS011;56800;52.142;5.364;2022-10-16T10:27:56;10.13;;;2.22;;
69594;SDS011;56800;52.142;5.364;2022-10-16T10:30:38;15.02;;;2.97;;
69594;SDS011;56800;52.142;5.364;2022-10-16T10:38:33;11.00;;;2.38;;
69594;SDS011;56800;52.142;5.364;2022-10-16T10:46:51;11.40;;;2.50;;
69594;SDS011;56800;52.142;5.364;2022-10-16T11:01:05;11.13;;;2.80;;
69594;SDS011;56800;52.142;5.364;2022-10-16T11:06:24;14.52;;;2.72;;
69594;SDS011;56800;52.142;5.364;2022-10-16T11:11:30;12.77;;;2.30;;
69594;SDS011;56800;52.142;5.364;2022-10-16T11:14:24;10.73;;;2.10;;
69594;SDS011;56800;52.142;5.364;2022-10-16T11:24:48;14.52;;;2.78;;
69594;SDS011;56800;52.142;5.364;2022-10-16T11:27:48;10.03;;;1.93;;
69594;SDS011;56800;52.142;5.364;2022-10-16T11:30:25;11.48;;;2.63;;
69594;SDS011;56800;52.142;5.364;2022-10-16T11:33:00;11.93;;;2.65;;
69594;SDS011;56800;52.142;5.364;2022-10-16T11:35:32;16.20;;;2.72;;
69594;SDS011;56800;52.142;5.364;2022-10-16T11:38:09;11.13;;;2.55;;
69594;SDS011;56800;52.142;5.364;2022-10-16T11:40:45;7.13;;;2.20;;
69594;SDS011;56800;52.142;5.364;2022-10-16T11:43:21;9.43;;;2.25;;
69594;SDS011;56800;52.142;5.364;2022-10-16T11:45:54;11.70;;;2.67;;
69594;SDS011;56800;52.142;5.364;2022-10-16T11:51:21;8.88;;;2.10;;
69594;SDS011;56800;52.142;5.364;2022-10-16T11:53:59;13.10;;;2.20;;
69594;SDS011;56800;52.142;5.364;2022-10-16T11:56:48;9.07;;;2.45;;
69594;SDS011;56800;52.142;5.364;2022-10-16T12:10:39;7.15;;;2.30;;
69594;SDS011;56800;52.142;5.364;2022-10-16T12:16:18;9.95;;;2.17;;
69594;SDS011;56800;52.142;5.364;2022-10-16T12:18:47;13.65;;;2.80;;
69594;SDS011;56800;52.142;5.364;2022-10-16T12:21:15;12.00;;;1.97;;
69594;SDS011;56800;52.142;5.364;2022-10-16T12:23:51;14.55;;;2.55;;
69594;SDS011;56800;52.142;5.364;2022-10-16T12:26:39;6.35;;;2.22;;
69594;SDS011;56800;52.142;5.364;2022-10-16T12:29:23;9.38;;;2.42;;
69594;SDS011;56800;52.142;5.364;2022-10-16T12:31:56;8.90;;;2.15;;
69594;SDS011;56800;52.142;5.364;2022-10-16T12:34:31;10.20;;;2.63;;
69594;SDS011;56800;52.142;5.364;2022-10-16T12:37:13;10.18;;;2.30;;
69594;SDS011;56800;52.142;5.364;2022-10-16T12:39:45;13.52;;;2.35;;
69594;SDS011;56800;52.142;5.364;2022-10-16T12:42:21;10.52;;;2.63;;
69594;SDS011;56800;52.142;5.364;2022-10-16T12:44:56;9.70;;;2.28;;
69594;SDS011;56800;52.142;5.364;2022-10-16T12:49:58;13.85;;;2.70;;
69594;SDS011;56800;52.142;5.364;2022-10-16T12:52:27;10.35;;;2.78;;
69594;SDS011;56800;52.142;5.364;2022-10-16T12:55:03;9.10;;;2.15;;
69594;SDS011;56800;52.142;5.364;2022-10-16T13:00:21;15.63;;;2.00;;
69594;SDS011;56800;52.142;5.364;2022-10-16T13:13:54;12.63;;;2.30;;
69594;SDS011;56800;52.142;5.364;2022-10-16T13:19:06;10.50;;;2.00;;
69594;SDS011;56800;52.142;5.364;2022-10-16T13:21:47;8.90;;;2.42;;
69594;SDS011;56800;52.142;5.364;2022-10-16T13:24:46;10.20;;;2.13;;
69594;SDS011;56800;52.142;5.364;2022-10-16T13:27:48;12.60;;;2.37;;
69594;SDS011;56800;52.142;5.364;2022-10-16T13:30:22;10.25;;;2.60;;
69594;SDS011;56800;52.142;5.364;2022-10-16T13:35:31;14.85;;;2.30;;
69594;SDS011;56800;52.142;5.364;2022-10-16T13:38:11;12.00;;;2.20;;
69594;SDS011;56800;52.142;5.364;2022-10-16T13:43:19;10.55;;;2.53;;
69594;SDS011;56800;52.142;5.364;2022-10-16T13:46:03;9.80;;;2.08;;
69594;SDS011;56800;52.142;5.364;2022-10-16T13:48:38;12.15;;;2.45;;
69594;SDS011;56800;52.142;5.364;2022-10-16T13:51:06;14.88;;;2.60;;
69594;SDS011;56800;52.142;5.364;2022-10-16T13:53:39;10.63;;;2.58;;
69594;SDS011;56800;52.142;5.364;2022-10-16T13:56:09;15.30;;;3.30;;
69594;SDS011;56800;52.142;5.364;2022-10-16T13:58:43;12.30;;;2.85;;
69594;SDS011;56800;52.142;5.364;2022-10-16T14:01:17;13.20;;;2.50;;
69594;SDS011;56800;52.142;5.364;2022-10-16T14:03:46;8.40;;;2.30;;
69594;SDS011;56800;52.142;5.364;2022-10-16T14:06:14;12.53;;;2.17;;
69594;SDS011;56800;52.142;5.364;2022-10-16T14:08:44;8.93;;;1.85;;
69594;SDS011;56800;52.142;5.364;2022-10-16T14:11:19;8.65;;;1.80;;
69594;SDS011;56800;52.142;5.364;2022-10-16T14:13:49;16.40;;;2.88;;
69594;SDS011;56800;52.142;5.364;2022-10-16T14:16:27;10.25;;;2.00;;
69594;SDS011;56800;52.142;5.364;2022-10-16T14:19:04;13.70;;;2.60;;
69594;SDS011;56800;52.142;5.364;2022-10-16T14:21:33;13.20;;;2.55;;
69594;SDS011;56800;52.142;5.364;2022-10-16T14:24:10;10.57;;;2.65;;
69594;SDS011;56800;52.142;5.364;2022-10-16T14:26:50;12.02;;;2.30;;
69594;SDS011;56800;52.142;5.364;2022-10-16T14:29:18;12.80;;;2.90;;
69594;SDS011;56800;52.142;5.364;2022-10-16T14:31:58;10.27;;;1.97;;
69594;SDS011;56800;52.142;5.364;2022-10-16T14:34:28;16.98;;;2.75;;
69594;SDS011;56800;52.142;5.364;2022-10-16T14:39:53;14.02;;;2.55;;
69594;SDS011;56800;52.142;5.364;2022-10-16T14:42:21;11.88;;;2.58;;
69594;SDS011;56800;52.142;5.364;2022-10-16T14:44:51;13.60;;;2.17;;
69594;SDS011;56800;52.142;5.364;2022-10-16T14:47:20;12.35;;;1.70;;
69594;SDS011;56800;52.142;5.364;2022-10-16T14:49:53;19.13;;;3.17;;
69594;SDS011;56800;52.142;5.364;2022-10-16T14:52:25;13.95;;;3.28;;
69594;SDS011;56800;52.142;5.364;2022-10-16T14:54:51;8.55;;;1.80;;
69594;SDS011;56800;52.142;5.364;2022-10-16T14:57:23;10.77;;;2.00;;
69594;SDS011;56800;52.142;5.364;2022-10-16T14:59:53;13.18;;;2.78;;
69594;SDS011;56800;52.142;5.364;2022-10-16T15:02:35;15.23;;;2.97;;
69594;SDS011;56800;52.142;5.364;2022-10-16T15:07:45;20.27;;;2.58;;
69594;SDS011;56800;52.142;5.364;2022-10-16T15:10:13;12.63;;;2.17;;
69594;SDS011;56800;52.142;5.364;2022-10-16T15:12:40;18.55;;;2.42;;
69594;SDS011;56800;52.142;5.364;2022-10-16T15:15:21;16.20;;;2.40;;
69594;SDS011;56800;52.142;5.364;2022-10-16T15:17:50;21.85;;;2.55;;
69594;SDS011;56800;52.142;5.364;2022-10-16T15:20:26;10.57;;;1.98;;
69594;SDS011;56800;52.142;5.364;2022-10-16T15:22:54;13.47;;;2.33;;
69594;SDS011;56800;52.142;5.364;2022-10-16T15:25:29;14.45;;;2.92;;
69594;SDS011;56800;52.142;5.364;2022-10-16T15:27:59;13.07;;;2.15;;
69594;SDS011;56800;52.142;5.364;2022-10-16T15:30:27;12.18;;;1.92;;
69594;SDS011;56800;52.142;5.364;2022-10-16T15:32:54;12.38;;;1.92;;
69594;SDS011;56800;52.142;5.364;2022-10-16T15:35:21;10.43;;;2.33;;
69594;SDS011;56800;52.142;5.364;2022-10-16T15:37:47;15.75;;;2.35;;
69594;SDS011;56800;52.142;5.364;2022-10-16T15:40:14;11.52;;;2.22;;
69594;SDS011;56800;52.142;5.364;2022-10-16T15:42:43;15.05;;;2.72;;
69594;SDS011;56800;52.142;5.364;2022-10-16T15:45:10;13.15;;;2.50;;
69594;SDS011;56800;52.142;5.364;2022-10-16T15:47:37;10.30;;;2.37;;
69594;SDS011;56800;52.142;5.364;2022-10-16T15:50:11;16.08;;;2.13;;
69594;SDS011;56800;52.142;5.364;2022-10-16T15:52:39;13.50;;;2.42;;
69594;SDS011;56800;52.142;5.364;2022-10-16T15:55:07;10.52;;;2.22;;
69594;SDS011;56800;52.142;5.364;2022-10-16T15:57:36;14.63;;;2.40;;
69594;SDS011;56800;52.142;5.364;2022-10-16T16:00:07;17.17;;;3.07;;
69594;SDS011;56800;52.142;5.364;2022-10-16T16:02:42;10.75;;;2.53;;
69594;SDS011;56800;52.142;5.364;2022-10-16T16:05:09;14.75;;;2.50;;
69594;SDS011;56800;52.142;5.364;2022-10-16T16:07:37;12.93;;;2.17;;
69594;SDS011;56800;52.142;5.364;2022-10-16T16:10:06;12.05;;;2.53;;
69594;SDS011;56800;52.142;5.364;2022-10-16T16:12:35;14.67;;;2.50;;
69594;SDS011;56800;52.142;5.364;2022-10-16T16:15:06;14.95;;;2.67;;
69594;SDS011;56800;52.142;5.364;2022-10-16T16:17:34;11.45;;;2.80;;
69594;SDS011;56800;52.142;5.364;2022-10-16T16:20:02;14.85;;;2.50;;
69594;SDS011;56800;52.142;5.364;2022-10-16T16:22:30;11.27;;;1.95;;
69594;SDS011;56800;52.142;5.364;2022-10-16T16:24:57;16.13;;;2.37;;
69594;SDS011;56800;52.142;5.364;2022-10-16T16:27:23;12.13;;;2.00;;
69594;SDS011;56800;52.142;5.364;2022-10-16T16:29:56;12.65;;;2.72;;
69594;SDS011;56800;52.142;5.364;2022-10-16T16:32:22;16.95;;;2.50;;
69594;SDS011;56800;52.142;5.364;2022-10-16T16:34:49;16.60;;;2.45;;
69594;SDS011;56800;52.142;5.364;2022-10-16T16:37:15;20.07;;;2.40;;
69594;SDS011;56800;52.142;5.364;2022-10-16T16:39:42;17.00;;;2.80;;
69594;SDS011;56800;52.142;5.364;2022-10-16T16:42:09;16.05;;;2.60;;
69594;SDS011;56800;52.142;5.364;2022-10-16T16:44:36;14.13;;;2.75;;
69594;SDS011;56800;52.142;5.364;2022-10-16T16:47:03;11.95;;;2.88;;
69594;SDS011;56800;52.142;5.364;2022-10-16T16:49:30;16.03;;;2.57;;
69594;SDS011;56800;52.142;5.364;2022-10-16T16:51:57;11.68;;;2.70;;
69594;SDS011;56800;52.142;5.364;2022-10-16T16:54:24;15.73;;;3.45;;
69594;SDS011;56800;52.142;5.364;2022-10-16T16:56:51;14.55;;;3.25;;
69594;SDS011;56800;52.142;5.364;2022-10-16T16:59:18;21.73;;;3.25;;
69594;SDS011;56800;52.142;5.364;2022-10-16T17:01:46;16.43;;;3.10;;
69594;SDS011;56800;52.142;5.364;2022-10-16T17:04:17;17.02;;;3.28;;
69594;SDS011;56800;52.142;5.364;2022-10-16T17:06:44;19.83;;;3.13;;
69594;SDS011;56800;52.142;5.364;2022-10-16T17:09:11;14.02;;;3.05;;